DTMB

Monastir Habib Bourguiba International Airport

Monastir, Tunisia
METAR DTMB 170300Z 03013KT 5000 TS BKN020 FEW030CB 21/17 Q1013 NOSIG
Observed Flight Rules
Oct-17 @ 03:00 UTC (37 minutes ago) Marginal Visual Flight Rules
Wind Visibility Clouds Conditions
30° at 13 knots 5,005 meters
  • Broken at 2,000' AGL
  • Few at 3,000' AGL
  • Thunderstorm
Temperatures Readings
Current 21°C / 70°F
Dewpoint 17°C / 63°F
Humidity 78%
Altimeter 29.91" Hg
Pressure 1013 hPa
Elevation 2
METAR DTMB 170300Z 03013KT 5000 TS BKN020 FEW030CB 21/17 Q1013 NOSIG
Observed Flight Rules
Oct-17 @ 03:00 UTC
(37 minutes ago)
MVFR
Wind Visibility
30° at 13 knots 5,005 meters
Clouds
  • Broken at 2,000' AGL
  • Few at 3,000' AGL
Conditions
  • Thunderstorm
Temperature Dewpoint
21°C / 70°F 17°C / 63°F
Humidity Altimeter Pressure
78% 29.91" Hg 1013 hPa